Time;durP1;ratioP1;P1;durP2;ratioP2;P2;SDS_P1;SDS_P2;PMS_P1;PMS_P2;Temp;Humidity;BMP_temperature;BMP_pressure;BME280_temperature;BME280_humidity;BME280_pressure;Samples;Min_cycle;Max_cycle;Signal;HPM_P1;HPM_P2
2022/03/27 00:01:01;;;;;;;20.63;11.93;;;5.90;85.50;;;;;;5030684;28;20217;-68
2022/03/27 00:03:28;;;;;;;19.33;11.45;;;5.90;85.70;;;;;;5029861;28;20212;-68
2022/03/27 00:05:55;;;;;;;18.58;12.63;;;5.80;85.80;;;;;;5030142;28;20225;-68
2022/03/27 00:08:22;;;;;;;20.48;11.88;;;5.70;85.80;;;;;;5029831;28;20206;-67
2022/03/27 00:13:34;;;;;;;21.40;12.40;;;5.60;86.10;;;;;;5030318;28;20340;-68
2022/03/27 00:16:00;;;;;;;20.48;10.85;;;5.50;86.50;;;;;;5029271;28;20222;-68
2022/03/27 00:18:27;;;;;;;20.48;11.00;;;5.50;86.90;;;;;;5029759;28;20194;-67
2022/03/27 00:20:54;;;;;;;25.80;11.60;;;5.50;87.50;;;;;;5030860;28;20683;-69
2022/03/27 00:23:25;;;;;;;21.13;11.02;;;5.50;86.90;;;;;;5031331;28;20205;-69
2022/03/27 00:25:54;;;;;;;15.00;10.02;;;5.50;87.30;;;;;;5029712;28;20230;-69
2022/03/27 00:28:20;;;;;;;15.65;10.40;;;5.50;87.40;;;;;;5030682;28;20197;-68
2022/03/27 00:30:47;;;;;;;21.05;11.05;;;5.40;87.50;;;;;;5030960;28;20687;-69
2022/03/27 00:33:15;;;;;;;14.45;10.40;;;5.40;87.60;;;;;;5030979;28;20285;-68
2022/03/27 00:35:41;;;;;;;18.33;10.60;;;5.40;87.80;;;;;;5030916;28;20715;-69
2022/03/27 00:38:08;;;;;;;20.52;11.10;;;5.40;88.10;;;;;;5030299;28;20205;-69
2022/03/27 00:40:35;;;;;;;19.52;10.85;;;5.40;88.00;;;;;;5030836;28;20205;-68
2022/03/27 00:43:04;;;;;;;16.40;9.95;;;5.30;88.40;;;;;;5030707;28;20588;-69
2022/03/27 00:45:31;;;;;;;19.70;10.27;;;5.30;88.80;;;;;;5030874;28;20598;-69
2022/03/27 00:47:58;;;;;;;15.88;11.50;;;5.20;89.00;;;;;;5030099;28;20209;-69
2022/03/27 00:50:25;;;;;;;14.57;10.15;;;5.20;88.90;;;;;;5030669;28;20241;-68
2022/03/27 00:52:52;;;;;;;18.48;10.63;;;5.20;89.00;;;;;;5030638;28;20209;-69
2022/03/27 00:55:18;;;;;;;18.20;10.38;;;5.10;89.30;;;;;;5030649;28;20225;-69
2022/03/27 00:57:45;;;;;;;18.02;10.77;;;5.10;89.40;;;;;;5030060;28;20197;-69
2022/03/27 01:00:44;;;;;;;25.45;10.27;;;5.10;89.80;;;;;;5030501;28;20820;-68
2022/03/27 01:03:12;;;;;;;15.75;10.80;;;5.00;90.00;;;;;;5030813;28;20201;-68
2022/03/27 01:05:39;;;;;;;19.98;10.65;;;5.00;90.00;;;;;;5030423;28;20232;-68
2022/03/27 01:08:08;;;;;;;17.42;10.57;;;5.00;90.00;;;;;;5029850;28;20198;-69
2022/03/27 01:10:35;;;;;;;18.02;11.02;;;4.90;90.20;;;;;;5030155;28;20205;-68
2022/03/27 01:13:05;;;;;;;20.63;11.30;;;4.90;90.20;;;;;;5030348;28;20208;-69
2022/03/27 01:15:39;;;;;;;19.60;10.52;;;4.90;90.10;;;;;;5030586;28;20631;-69
2022/03/27 01:18:07;;;;;;;17.33;11.55;;;4.90;90.20;;;;;;5029832;28;20197;-67
2022/03/27 01:20:36;;;;;;;16.17;10.30;;;4.90;90.50;;;;;;5030385;28;20209;-68
2022/03/27 01:23:08;;;;;;;15.45;11.10;;;4.90;90.50;;;;;;5030335;28;20213;-68
2022/03/27 01:25:35;;;;;;;13.82;9.48;;;4.80;90.40;;;;;;5030159;28;20260;-68
2022/03/27 01:28:03;;;;;;;15.40;10.38;;;4.80;90.50;;;;;;5029808;28;20216;-67
2022/03/27 01:30:29;;;;;;;18.88;11.18;;;4.80;90.50;;;;;;5030331;28;20206;-68
2022/03/27 01:32:56;;;;;;;20.05;10.48;;;4.80;90.70;;;;;;5029834;28;20205;-68
2022/03/27 01:35:23;;;;;;;19.05;10.43;;;4.80;90.80;;;;;;5030351;28;20225;-67
2022/03/27 01:37:52;;;;;;;18.65;11.40;;;4.80;90.70;;;;;;5029432;28;20575;-68
2022/03/27 01:40:19;;;;;;;16.73;10.27;;;4.70;90.70;;;;;;5030331;28;20210;-68
2022/03/27 01:42:46;;;;;;;19.17;11.18;;;4.70;90.80;;;;;;5029958;28;20206;-68
2022/03/27 01:45:13;;;;;;;20.30;11.82;;;4.70;90.90;;;;;;5030193;28;20225;-68
2022/03/27 01:47:40;;;;;;;18.55;11.20;;;4.60;91.00;;;;;;5029485;28;20204;-67
2022/03/27 01:50:08;;;;;;;16.48;10.35;;;4.50;91.10;;;;;;5029603;28;20210;-69
2022/03/27 01:52:35;;;;;;;20.00;10.95;;;4.40;91.20;;;;;;5030028;28;20213;-69
2022/03/27 01:55:06;;;;;;;17.67;11.77;;;4.50;91.50;;;;;;5029668;28;20225;-69
2022/03/27 01:57:33;;;;;;;23.48;11.50;;;4.40;91.60;;;;;;5029715;28;20194;-70
2022/03/27 02:00:00;;;;;;;19.40;11.18;;;4.40;91.50;;;;;;5030415;28;20205;-70
2022/03/27 02:02:27;;;;;;;18.13;11.20;;;4.40;91.50;;;;;;5029997;28;20336;-69
2022/03/27 02:04:54;;;;;;;20.52;11.60;;;4.30;91.60;;;;;;5029906;28;20234;-69
2022/03/27 02:07:22;;;;;;;22.35;12.18;;;4.40;91.80;;;;;;5029563;28;20228;-69
2022/03/27 02:09:49;;;;;;;21.55;11.43;;;4.30;91.90;;;;;;5029978;28;20684;-68
2022/03/27 02:12:17;;;;;;;16.38;10.52;;;4.30;91.90;;;;;;5030242;28;20224;-68
2022/03/27 02:14:43;;;;;;;19.50;10.80;;;4.30;92.00;;;;;;5029876;28;20204;-68
2022/03/27 02:17:10;;;;;;;16.88;10.02;;;4.30;92.10;;;;;;5029715;28;20202;-68
2022/03/27 02:19:37;;;;;;;22.70;11.80;;;4.30;92.20;;;;;;5029738;28;20205;-69
2022/03/27 02:35:05;;;;;;;17.80;10.38;;;4.10;92.50;;;;;;4958797;28;20248;-94
2022/03/27 02:38:52;;;;;;;;;;;;;;;;;;;;;
2022/03/27 02:49:00;;;;;;;17.02;10.27;;;4.10;92.60;;;;;;5037720;28;20672;-95
2022/03/27 02:54:47;;;;;;;17.75;10.85;;;4.10;92.80;;;;;;5026471;28;20197;-94
2022/03/27 02:57:21;;;;;;;15.88;10.57;;;4.00;92.90;;;;;;5040510;28;20644;-94
2022/03/27 02:59:52;;;;;;;20.85;10.38;;;4.00;92.90;;;;;;5041703;28;20197;-94
2022/03/27 03:02:28;;;;;;;16.40;11.65;;;4.00;92.80;;;;;;5041222;28;20220;-95
2022/03/27 03:04:58;;;;;;;20.50;10.30;;;4.00;92.80;;;;;;5040784;28;20240;-94
2022/03/27 03:07:34;;;;;;;19.45;10.43;;;4.00;93.00;;;;;;5040544;28;20225;-95
2022/03/27 03:14:14;;;;;;;;;;;;;;;;;;;;;
2022/03/27 03:17:32;;;;;;;22.27;10.57;;;3.90;93.00;;;;;;5044562;28;20284;-94
2022/03/27 03:23:17;;;;;;;18.05;10.00;;;3.80;93.10;;;;;;4991472;22;20319;-67
2022/03/27 03:25:44;;;;;;;15.95;10.43;;;3.80;93.20;;;;;;5063083;28;20220;-68
2022/03/27 03:28:11;;;;;;;16.17;10.80;;;3.80;93.30;;;;;;5071276;28;20614;-68
2022/03/27 03:30:37;;;;;;;16.02;9.95;;;3.80;93.30;;;;;;5071374;28;20204;-69
2022/03/27 03:33:04;;;;;;;15.52;9.93;;;3.70;93.40;;;;;;5071359;28;20204;-68
2022/03/27 03:35:31;;;;;;;16.95;10.38;;;3.70;93.50;;;;;;5071326;28;20225;-68
2022/03/27 03:37:58;;;;;;;18.00;10.45;;;3.70;93.40;;;;;;5070842;28;20207;-68
2022/03/27 03:40:26;;;;;;;18.27;11.13;;;3.70;93.30;;;;;;5071534;28;20262;-67
2022/03/27 03:42:52;;;;;;;18.55;10.05;;;3.70;93.30;;;;;;5071307;28;20203;-68
2022/03/27 03:45:19;;;;;;;17.55;10.30;;;3.70;93.40;;;;;;5071322;28;20376;-68
2022/03/27 03:47:46;;;;;;;19.75;9.65;;;3.70;93.50;;;;;;5070957;28;20228;-69
2022/03/27 03:50:13;;;;;;;21.92;10.02;;;3.70;93.50;;;;;;5071440;28;20204;-69
2022/03/27 03:52:40;;;;;;;18.05;9.88;;;3.60;93.70;;;;;;5072044;28;20265;-68
2022/03/27 03:55:08;;;;;;;21.88;10.15;;;3.60;93.70;;;;;;5070780;28;20216;-68
2022/03/27 03:57:36;;;;;;;16.95;10.50;;;3.60;93.70;;;;;;5070469;28;20228;-68
2022/03/27 04:00:04;;;;;;;21.70;11.65;;;3.60;93.80;;;;;;5071223;28;20572;-68
2022/03/27 04:02:30;;;;;;;14.73;9.60;;;3.60;93.80;;;;;;5070684;28;20212;-68
2022/03/27 04:04:57;;;;;;;19.05;9.88;;;3.60;93.80;;;;;;5070962;28;20220;-69
2022/03/27 04:07:23;;;;;;;18.30;10.80;;;3.50;93.80;;;;;;5070066;28;20220;-68
2022/03/27 04:09:51;;;;;;;17.77;10.10;;;3.50;93.80;;;;;;5071207;28;20204;-68
2022/03/27 04:12:17;;;;;;;18.38;10.00;;;3.50;93.90;;;;;;5070778;28;20487;-68
2022/03/27 04:14:45;;;;;;;14.60;9.60;;;3.40;94.10;;;;;;5070800;28;20211;-68
2022/03/27 04:17:12;;;;;;;18.45;10.80;;;3.40;94.00;;;;;;5070451;28;20197;-68
2022/03/27 04:19:40;;;;;;;15.90;9.95;;;3.40;94.10;;;;;;5070786;28;20251;-68
2022/03/27 04:22:07;;;;;;;17.90;10.52;;;3.40;94.10;;;;;;5070806;28;20197;-68
2022/03/27 04:24:34;;;;;;;13.68;9.20;;;3.40;94.10;;;;;;5070258;28;20688;-67
2022/03/27 04:27:00;;;;;;;21.45;9.95;;;3.30;94.10;;;;;;5070174;28;20228;-69
2022/03/27 04:29:27;;;;;;;16.92;11.13;;;3.30;94.20;;;;;;5070569;28;20197;-68
2022/03/27 04:31:55;;;;;;;16.48;10.73;;;3.30;94.20;;;;;;5070308;28;20205;-68
2022/03/27 04:34:22;;;;;;;15.30;9.88;;;3.30;94.20;;;;;;5070486;28;20208;-68
2022/03/27 04:36:49;;;;;;;16.45;8.57;;;3.30;94.20;;;;;;5069695;28;20228;-68
2022/03/27 04:39:16;;;;;;;16.33;9.95;;;3.30;94.30;;;;;;5070692;28;20299;-68
2022/03/27 04:41:44;;;;;;;17.02;9.90;;;3.30;94.40;;;;;;5070768;28;20204;-68
2022/03/27 04:44:11;;;;;;;17.75;9.52;;;3.30;94.40;;;;;;5069798;28;20204;-68
2022/03/27 04:46:37;;;;;;;15.02;8.98;;;3.20;94.40;;;;;;5069674;28;20591;-69
2022/03/27 04:49:05;;;;;;;15.05;9.68;;;3.30;94.40;;;;;;5069900;28;20235;-68
2022/03/27 04:51:32;;;;;;;19.17;9.38;;;3.20;94.40;;;;;;5070243;28;20726;-69
2022/03/27 04:53:59;;;;;;;16.92;9.68;;;3.20;94.60;;;;;;5070122;28;20200;-68
2022/03/27 04:56:26;;;;;;;21.02;9.40;;;3.20;94.60;;;;;;5069909;28;20239;-68
2022/03/27 04:58:53;;;;;;;15.45;9.63;;;3.20;94.60;;;;;;5069781;28;20227;-68
2022/03/27 05:01:19;;;;;;;19.92;10.50;;;3.10;94.70;;;;;;5069975;28;20211;-69
2022/03/27 05:03:46;;;;;;;18.05;10.48;;;3.10;94.90;;;;;;5070334;28;20200;-68
2022/03/27 05:06:15;;;;;;;25.50;11.30;;;3.20;94.80;;;;;;5069630;28;20243;-68
2022/03/27 05:08:44;;;;;;;15.80;9.38;;;3.10;94.90;;;;;;5069591;28;20196;-68
2022/03/27 05:11:11;;;;;;;16.67;9.80;;;3.10;95.00;;;;;;5070225;28;20201;-68
2022/03/27 05:13:38;;;;;;;16.52;9.55;;;3.10;94.90;;;;;;5069688;28;20196;-69
2022/03/27 05:16:05;;;;;;;19.92;10.07;;;3.10;94.90;;;;;;5070286;28;20220;-68
2022/03/27 05:18:32;;;;;;;19.70;9.40;;;3.10;95.00;;;;;;5069041;28;20208;-67
2022/03/27 05:20:59;;;;;;;18.50;10.13;;;3.10;95.10;;;;;;5070164;28;20207;-67
2022/03/27 05:23:28;;;;;;;16.38;9.27;;;3.10;95.20;;;;;;5069889;28;20588;-68
2022/03/27 05:25:54;;;;;;;14.98;9.82;;;3.10;95.20;;;;;;5069990;28;20578;-67
2022/03/27 05:28:21;;;;;;;18.38;11.30;;;3.10;95.40;;;;;;5069203;28;20227;-69
2022/03/27 05:30:48;;;;;;;14.88;9.27;;;3.10;95.30;;;;;;5069896;28;20212;-67
2022/03/27 05:33:15;;;;;;;17.65;11.48;;;3.10;95.30;;;;;;5070036;28;20210;-68
2022/03/27 05:35:42;;;;;;;19.63;10.85;;;3.10;95.30;;;;;;5069638;28;20247;-69
2022/03/27 05:38:09;;;;;;;13.55;9.70;;;3.10;95.30;;;;;;5069673;28;20196;-68
2022/03/27 05:40:38;;;;;;;14.00;9.30;;;3.10;95.40;;;;;;5070235;28;20200;-68
2022/03/27 05:43:05;;;;;;;15.70;9.20;;;3.10;95.50;;;;;;5069871;28;20253;-68
2022/03/27 05:45:32;;;;;;;17.30;9.40;;;3.10;95.50;;;;;;5070460;28;20224;-68
2022/03/27 05:47:58;;;;;;;24.17;10.23;;;3.10;95.50;;;;;;5069723;28;20221;-69
2022/03/27 05:50:25;;;;;;;13.93;9.10;;;3.10;95.60;;;;;;5070129;28;20200;-67
2022/03/27 05:52:53;;;;;;;16.05;9.77;;;3.20;95.70;;;;;;5070326;28;20200;-68
2022/03/27 05:55:20;;;;;;;17.63;10.10;;;3.20;95.60;;;;;;5069646;28;20627;-67
2022/03/27 05:57:48;;;;;;;17.27;9.85;;;3.30;95.70;;;;;;5073397;28;20205;-68
2022/03/27 06:00:19;;;;;;;15.95;9.90;;;3.30;95.80;;;;;;5073516;28;20225;-69
2022/03/27 06:02:46;;;;;;;12.70;9.23;;;3.40;95.70;;;;;;5073904;28;20671;-68
2022/03/27 06:05:13;;;;;;;18.73;10.23;;;3.50;95.70;;;;;;5073285;28;20587;-68
2022/03/27 06:07:45;;;;;;;13.90;9.18;;;3.50;95.80;;;;;;5072983;28;20234;-68
2022/03/27 06:10:13;;;;;;;21.25;10.85;;;3.60;95.70;;;;;;5073603;28;20204;-69
2022/03/27 06:12:40;;;;;;;15.52;8.73;;;3.70;95.80;;;;;;5073372;28;20280;-68
2022/03/27 06:15:09;;;;;;;16.48;9.48;;;3.80;95.70;;;;;;5073434;28;20236;-67
2022/03/27 06:17:40;;;;;;;16.55;10.02;;;3.90;95.70;;;;;;5072522;28;20204;-68
2022/03/27 06:20:09;;;;;;;21.20;10.00;;;4.00;95.80;;;;;;5073503;28;20224;-67
2022/03/27 06:22:36;;;;;;;16.23;10.25;;;4.10;95.80;;;;;;5072586;28;20208;-68
2022/03/27 06:25:03;;;;;;;16.15;10.55;;;4.20;95.80;;;;;;5072946;28;20228;-68
2022/03/27 06:27:30;;;;;;;17.13;10.52;;;4.30;95.70;;;;;;5072575;28;20228;-67
2022/03/27 06:29:56;;;;;;;15.48;10.15;;;4.40;95.70;;;;;;5072951;28;20230;-67
2022/03/27 06:32:26;;;;;;;13.30;9.32;;;4.50;95.70;;;;;;5073136;28;20197;-68
2022/03/27 06:34:57;;;;;;;18.02;10.77;;;4.60;95.60;;;;;;5072736;28;20220;-68
2022/03/27 06:37:24;;;;;;;14.40;9.73;;;4.80;95.60;;;;;;5072507;28;20672;-68
2022/03/27 06:39:51;;;;;;;19.73;10.10;;;4.90;95.70;;;;;;5073114;28;20596;-68
2022/03/27 06:42:18;;;;;;;13.82;10.25;;;5.00;95.90;;;;;;5072636;28;20623;-67
2022/03/27 06:44:44;;;;;;;14.52;10.32;;;5.20;95.80;;;;;;5073173;28;20215;-68
2022/03/27 06:47:11;;;;;;;13.57;9.35;;;5.40;95.80;;;;;;5073332;28;20228;-68
2022/03/27 06:49:39;;;;;;;16.98;10.27;;;5.50;95.80;;;;;;5073713;28;20210;-68
2022/03/27 06:52:07;;;;;;;17.40;10.80;;;5.80;95.90;;;;;;5073712;28;20299;-68
2022/03/27 06:54:34;;;;;;;14.45;9.82;;;6.00;95.80;;;;;;5073011;28;20228;-69
2022/03/27 06:57:01;;;;;;;14.13;9.00;;;6.30;95.60;;;;;;5072050;28;20203;-68
2022/03/27 06:59:28;;;;;;;16.92;11.48;;;6.50;95.80;;;;;;5072577;28;20208;-68
2022/03/27 07:04:40;;;;;;;20.10;11.77;;;7.00;95.90;;;;;;5072394;28;20195;-67
2022/03/27 07:07:07;;;;;;;18.15;10.50;;;7.20;95.90;;;;;;5071579;28;20628;-68
2022/03/27 07:09:33;;;;;;;17.02;10.10;;;7.40;95.10;;;;;;5071893;28;20200;-68
2022/03/27 07:12:00;;;;;;;17.50;10.43;;;7.70;95.30;;;;;;5072973;28;20200;-70
2022/03/27 07:14:27;;;;;;;20.20;11.63;;;8.00;94.50;;;;;;5072657;28;20216;-68
2022/03/27 07:16:54;;;;;;;16.75;10.00;;;8.20;93.40;;;;;;5071397;28;20734;-68
2022/03/27 07:19:20;;;;;;;19.67;9.95;;;8.40;92.50;;;;;;5072392;28;20196;-68
2022/03/27 07:21:49;;;;;;;15.93;10.07;;;8.70;90.50;;;;;;5071940;28;20204;-69
2022/03/27 07:24:15;;;;;;;15.40;8.95;;;9.00;89.20;;;;;;5072069;28;20282;-69
2022/03/27 07:26:43;;;;;;;17.92;10.18;;;9.30;87.10;;;;;;5071348;28;20606;-68
2022/03/27 07:29:11;;;;;;;20.20;10.90;;;9.70;86.60;;;;;;5064815;28;20258;-68
2022/03/27 07:31:38;;;;;;;14.10;10.40;;;10.20;84.90;;;;;;5048156;28;20287;-69
2022/03/27 07:34:04;;;;;;;17.50;11.10;;;10.80;83.50;;;;;;5046863;28;20204;-68
2022/03/27 07:36:31;;;;;;;16.65;10.98;;;11.30;82.10;;;;;;5048847;28;20216;-68
2022/03/27 07:38:59;;;;;;;17.73;9.63;;;11.70;80.90;;;;;;5049890;28;20239;-70
2022/03/27 07:41:26;;;;;;;16.40;11.13;;;12.30;79.40;;;;;;5049548;28;20201;-68
2022/03/27 07:43:53;;;;;;;16.67;11.20;;;12.80;78.30;;;;;;5046623;28;20920;-68
2022/03/27 07:46:19;;;;;;;13.60;10.73;;;13.40;78.70;;;;;;5049150;28;20471;-68
2022/03/27 07:48:46;;;;;;;16.60;10.90;;;14.10;77.20;;;;;;5048353;28;20487;-68
2022/03/27 07:51:13;;;;;;;15.17;11.13;;;14.80;74.00;;;;;;5049242;28;20455;-69
2022/03/27 07:53:40;;;;;;;17.60;11.53;;;15.40;74.20;;;;;;5047242;28;20471;-70
2022/03/27 07:56:08;;;;;;;14.27;11.40;;;16.10;73.40;;;;;;5049216;28;20828;-68
2022/03/27 07:58:36;;;;;;;24.10;11.50;;;16.40;69.20;;;;;;5047574;28;20455;-68
2022/03/27 08:01:03;;;;;;;14.20;11.10;;;16.40;68.70;;;;;;5047880;28;20462;-72
2022/03/27 08:03:30;;;;;;;16.77;12.03;;;16.50;69.60;;;;;;5048653;28;20462;-68
2022/03/27 08:05:56;;;;;;;12.80;10.30;;;16.40;71.00;;;;;;5048369;28;20481;-73
2022/03/27 08:08:23;;;;;;;18.63;11.60;;;16.90;70.20;;;;;;5047775;28;21118;-76
2022/03/27 08:10:50;;;;;;;18.00;10.77;;;16.90;67.20;;;;;;5048117;28;20460;-70
2022/03/27 08:13:18;;;;;;;14.10;10.90;;;16.90;67.70;;;;;;5048347;28;20827;-69
2022/03/27 08:15:45;;;;;;;17.77;10.73;;;17.20;68.50;;;;;;5047695;28;20490;-69
2022/03/27 08:18:13;;;;;;;14.77;11.23;;;17.70;68.70;;;;;;5047863;28;20867;-73
2022/03/27 08:20:41;;;;;;;18.10;11.93;;;18.20;67.50;;;;;;5047435;28;20463;-71
2022/03/27 08:23:08;;;;;;;14.40;10.10;;;18.50;65.90;;;;;;5047741;28;20877;-70
2022/03/27 08:28:21;;;;;;;14.37;10.60;;;19.10;65.50;;;;;;5047407;28;20498;-70
2022/03/27 08:30:48;;;;;;;16.90;11.03;;;19.60;64.50;;;;;;5048108;28;20463;-71
2022/03/27 08:33:16;;;;;;;18.33;11.20;;;20.20;64.70;;;;;;5048269;28;20470;-73
2022/03/27 08:35:43;;;;;;;19.53;12.40;;;20.80;63.40;;;;;;5047171;28;20492;-71
2022/03/27 08:38:11;;;;;;;16.93;12.40;;;21.60;61.90;;;;;;5047176;28;20959;-71
2022/03/27 08:40:39;;;;;;;17.93;11.60;;;22.00;61.40;;;;;;5048115;28;20483;-71
2022/03/27 08:43:09;;;;;;;15.07;12.67;;;22.50;59.90;;;;;;5048107;28;20505;-71
2022/03/27 08:45:37;;;;;;;16.67;12.00;;;23.10;58.70;;;;;;5047533;28;20486;-70
2022/03/27 08:48:05;;;;;;;17.53;12.33;;;23.40;59.00;;;;;;5046098;28;20998;-70
2022/03/27 08:50:38;;;;;;;16.47;11.97;;;23.50;57.70;;;;;;5048229;28;20466;-70
2022/03/27 08:53:07;;;;;;;16.20;11.97;;;23.60;57.80;;;;;;5046481;28;20461;-71
2022/03/27 08:55:46;;;;;;;13.70;11.90;;;23.80;58.70;;;;;;5045060;28;20510;-74
2022/03/27 08:58:13;;;;;;;15.40;11.73;;;24.40;57.60;;;;;;5046853;28;20505;-73
2022/03/27 09:00:41;;;;;;;14.93;12.50;;;24.50;56.10;;;;;;5046609;28;20459;-71
2022/03/27 09:03:09;;;;;;;15.07;12.37;;;24.70;56.80;;;;;;5047767;28;20461;-71
2022/03/27 09:05:37;;;;;;;14.60;11.40;;;24.90;56.20;;;;;;5047010;28;20478;-72
2022/03/27 09:08:07;;;;;;;14.80;12.20;;;24.50;56.30;;;;;;5048176;28;20982;-71
2022/03/27 09:13:02;;;;;;;13.87;11.03;;;25.80;55.40;;;;;;5107764;28;20461;-74
2022/03/27 09:15:29;;;;;;;16.77;12.43;;;26.10;54.20;;;;;;5109484;28;20464;-71
2022/03/27 09:18:02;;;;;;;14.77;12.57;;;25.50;55.10;;;;;;5108698;28;20459;-70
2022/03/27 09:20:31;;;;;;;12.93;11.63;;;25.90;54.90;;;;;;5109960;28;20551;-70
2022/03/27 09:23:07;;;;;;;14.93;10.97;;;26.20;54.10;;;;;;5107762;28;20461;-70
2022/03/27 09:25:44;;;;;;;15.93;11.63;;;27.00;53.70;;;;;;5107955;28;20479;-70
2022/03/27 09:28:10;;;;;;;16.37;11.27;;;27.40;53.90;;;;;;5107542;28;20491;-70
2022/03/27 09:30:37;;;;;;;13.40;11.33;;;26.70;53.90;;;;;;5110140;28;20461;-71
2022/03/27 09:33:06;;;;;;;16.10;11.67;;;27.00;53.40;;;;;;5092373;28;20480;-71
2022/03/27 09:35:35;;;;;;;14.40;12.60;;;27.30;53.60;;;;;;5092155;28;20476;-71
2022/03/27 09:38:12;;;;;;;14.87;12.20;;;27.40;53.70;;;;;;5091792;28;20865;-71
2022/03/27 09:40:39;;;;;;;12.40;11.10;;;27.90;53.90;;;;;;5091816;28;20455;-71
2022/03/27 09:43:15;;;;;;;13.27;10.67;;;28.20;52.10;;;;;;5091779;28;20461;-71
2022/03/27 09:45:56;;;;;;;17.60;12.57;;;28.60;52.20;;;;;;5095969;28;20522;-71
2022/03/27 09:48:25;;;;;;;13.50;11.27;;;29.10;50.50;;;;;;5090941;28;20541;-71
2022/03/27 09:50:53;;;;;;;13.03;11.67;;;29.10;50.00;;;;;;5102842;28;20461;-70
2022/03/27 09:53:23;;;;;;;14.70;11.00;;;28.80;50.90;;;;;;5101139;28;20530;-70
2022/03/27 09:55:55;;;;;;;12.27;9.87;;;28.80;49.70;;;;;;5097206;28;20482;-70
2022/03/27 09:58:40;;;;;;;13.20;9.47;;;29.00;50.00;;;;;;5099395;28;20980;-70
2022/03/27 10:01:11;;;;;;;13.17;10.70;;;29.30;49.20;;;;;;5093520;28;20826;-70
2022/03/27 10:03:57;;;;;;;14.27;11.10;;;28.40;47.90;;;;;;5093131;28;20499;-69
2022/03/27 10:06:28;;;;;;;19.00;11.50;;;28.10;49.20;;;;;;5093611;28;20474;-69
2022/03/27 10:08:55;;;;;;;18.27;10.90;;;28.20;48.60;;;;;;5092901;28;20488;-69
2022/03/27 10:11:22;;;;;;;14.80;9.80;;;28.40;49.50;;;;;;5093585;28;20468;-69
2022/03/27 10:13:52;;;;;;;12.60;9.83;;;27.90;46.90;;;;;;5093831;28;20463;-70
2022/03/27 10:16:22;;;;;;;15.20;10.70;;;28.10;48.60;;;;;;5093605;28;21055;-70
2022/03/27 10:18:53;;;;;;;15.40;10.43;;;28.00;49.30;;;;;;5093075;28;20462;-70
2022/03/27 10:21:22;;;;;;;12.90;10.40;;;27.80;48.10;;;;;;5093581;28;20458;-69
2022/03/27 10:23:51;;;;;;;11.10;9.30;;;27.80;49.50;;;;;;5093542;28;20461;-69
2022/03/27 10:26:18;;;;;;;14.93;10.27;;;28.10;49.10;;;;;;5093695;28;20486;-68
2022/03/27 10:28:46;;;;;;;13.27;10.77;;;28.40;48.00;;;;;;5093148;28;20863;-70
2022/03/27 10:31:12;;;;;;;19.73;10.87;;;28.70;48.10;;;;;;5093937;28;20857;-70
2022/03/27 10:33:39;;;;;;;14.63;11.17;;;28.80;46.30;;;;;;5093285;28;20462;-72
2022/03/27 10:36:11;;;;;;;12.10;10.80;;;28.10;48.20;;;;;;5093397;28;20478;-71
2022/03/27 10:39:05;;;;;;;13.27;10.63;;;28.10;47.60;;;;;;5092808;28;20458;-71
2022/03/27 10:41:36;;;;;;;14.50;11.60;;;28.70;47.10;;;;;;5093380;28;20459;-69
2022/03/27 10:44:11;;;;;;;14.93;10.47;;;29.50;47.10;;;;;;5092135;28;20823;-69
2022/03/27 10:46:38;;;;;;;12.70;9.97;;;29.60;46.40;;;;;;5093007;28;20840;-69
2022/03/27 10:49:14;;;;;;;14.17;10.30;;;29.70;46.90;;;;;;5093171;28;20489;-71
2022/03/27 10:51:43;;;;;;;13.00;9.50;;;29.50;45.90;;;;;;5093149;28;20955;-70
2022/03/27 10:54:12;;;;;;;11.63;9.90;;;29.60;47.60;;;;;;5093086;28;20477;-70
2022/03/27 10:56:41;;;;;;;15.30;10.70;;;30.10;45.00;;;;;;5092553;28;20846;-70
2022/03/27 10:59:16;;;;;;;18.77;11.10;;;30.00;46.00;;;;;;5092972;28;20454;-70
2022/03/27 11:01:46;;;;;;;17.30;12.73;;;30.40;47.10;;;;;;5092950;28;20462;-70
2022/03/27 11:04:13;;;;;;;10.70;9.27;;;31.00;47.00;;;;;;5092862;28;20463;-70
2022/03/27 11:06:43;;;;;;;11.60;9.70;;;31.60;47.10;;;;;;5091982;28;20488;-70
2022/03/27 11:09:13;;;;;;;11.50;10.30;;;32.10;45.60;;;;;;5092828;28;21069;-70
2022/03/27 11:12:05;;;;;;;14.50;10.70;;;32.20;44.50;;;;;;5092251;28;20968;-71
2022/03/27 11:14:57;;;;;;;13.27;10.83;;;31.90;45.20;;;;;;5092812;28;20469;-70
2022/03/27 11:17:33;;;;;;;19.67;11.30;;;32.00;44.40;;;;;;5092389;28;20509;-70
2022/03/27 11:20:00;;;;;;;12.33;10.57;;;31.80;44.90;;;;;;5092738;28;20455;-70
2022/03/27 11:22:47;;;;;;;13.43;11.00;;;31.50;44.90;;;;;;5092600;28;20451;-70
2022/03/27 11:25:32;;;;;;;14.90;10.53;;;31.00;46.50;;;;;;5092453;28;20896;-70
2022/03/27 11:28:07;;;;;;;11.47;10.27;;;31.10;46.20;;;;;;5091195;28;20487;-70
2022/03/27 11:30:35;;;;;;;13.10;10.63;;;31.50;45.70;;;;;;5092561;28;20466;-70
2022/03/27 11:33:16;;;;;;;13.20;11.20;;;31.70;46.30;;;;;;5092219;28;20464;-70
2022/03/27 11:36:04;;;;;;;11.80;10.60;;;32.20;45.50;;;;;;5092273;28;20485;-70
2022/03/27 11:38:34;;;;;;;13.70;10.13;;;32.10;46.00;;;;;;5091738;28;20453;-70
2022/03/27 11:41:25;;;;;;;12.60;9.57;;;31.80;45.00;;;;;;5092701;28;20467;-71
2022/03/27 11:43:52;;;;;;;13.70;9.60;;;32.00;44.10;;;;;;5092141;28;20464;-70
2022/03/27 11:46:23;;;;;;;11.33;9.40;;;32.20;43.80;;;;;;5092162;28;20477;-70
2022/03/27 11:48:54;;;;;;;12.50;10.80;;;32.20;44.90;;;;;;5091336;28;20924;-70
2022/03/27 11:51:24;;;;;;;10.23;9.20;;;32.30;43.00;;;;;;5092206;28;20468;-70
2022/03/27 11:53:53;;;;;;;12.93;10.03;;;32.10;39.60;;;;;;5091628;28;20464;-70
2022/03/27 11:56:20;;;;;;;15.10;10.70;;;32.10;42.10;;;;;;5092210;28;20481;-70
2022/03/27 11:59:05;;;;;;;13.43;10.67;;;32.00;43.30;;;;;;5091291;28;20451;-70
2022/03/27 12:01:32;;;;;;;12.10;10.40;;;31.80;43.50;;;;;;5091784;28;20463;-71
2022/03/27 12:04:00;;;;;;;12.60;10.00;;;31.80;43.20;;;;;;5091585;28;20941;-70
2022/03/27 12:06:28;;;;;;;12.97;10.07;;;32.20;45.10;;;;;;5091722;28;20474;-70
2022/03/27 12:08:58;;;;;;;13.07;9.10;;;32.80;43.80;;;;;;5091099;28;20489;-71
2022/03/27 12:11:27;;;;;;;11.30;9.40;;;33.00;42.40;;;;;;5091537;28;20576;-71
2022/03/27 12:13:56;;;;;;;12.03;8.50;;;33.10;40.70;;;;;;5091512;28;20465;-71
2022/03/27 12:16:26;;;;;;;14.70;9.10;;;33.00;39.20;;;;;;5091563;28;20534;-70
2022/03/27 12:18:54;;;;;;;10.70;8.80;;;32.70;40.70;;;;;;5091094;28;20465;-72
2022/03/27 12:21:22;;;;;;;13.27;9.93;;;32.40;41.30;;;;;;5091551;28;20465;-71
2022/03/27 12:23:50;;;;;;;10.93;9.80;;;32.40;42.00;;;;;;5091115;28;20484;-71
2022/03/27 12:32:13;;;;;;;12.23;9.27;;;31.50;39.90;;;;;;5091347;28;20440;-71
2022/03/27 12:34:44;;;;;;;15.60;9.13;;;31.60;41.70;;;;;;5090965;28;20811;-71
2022/03/27 12:37:16;;;;;;;12.60;9.87;;;31.80;41.40;;;;;;5090007;28;20457;-70
2022/03/27 12:40:03;;;;;;;12.93;8.93;;;31.90;42.20;;;;;;5090146;28;20467;-70
2022/03/27 12:42:35;;;;;;;12.57;9.50;;;32.40;39.00;;;;;;5090834;28;20459;-70
2022/03/27 12:45:03;;;;;;;11.07;9.03;;;31.70;39.80;;;;;;5086130;28;20463;-69
2022/03/27 12:47:31;;;;;;;11.87;8.60;;;31.80;42.00;;;;;;5085411;28;20472;-71
2022/03/27 12:49:58;;;;;;;11.13;9.83;;;31.60;41.20;;;;;;5088436;28;20501;-71
2022/03/27 12:52:25;;;;;;;11.27;10.13;;;31.70;40.30;;;;;;5087635;28;20564;-69
2022/03/27 12:54:59;;;;;;;13.33;9.70;;;31.60;41.80;;;;;;5087126;28;20993;-70
2022/03/27 12:57:47;;;;;;;10.63;9.37;;;31.50;42.10;;;;;;5086739;28;20466;-69
2022/03/27 13:00:16;;;;;;;10.67;9.57;;;31.90;40.50;;;;;;5087499;28;20456;-69
2022/03/27 13:02:43;;;;;;;11.67;8.83;;;32.00;39.40;;;;;;5089163;28;20994;-72
2022/03/27 13:05:10;;;;;;;11.40;9.67;;;31.30;40.60;;;;;;5087836;28;20477;-70
2022/03/27 13:07:57;;;;;;;12.70;9.07;;;31.00;41.20;;;;;;5086863;28;20476;-70
2022/03/27 13:10:25;;;;;;;14.17;8.23;;;31.60;40.70;;;;;;5086829;28;20480;-69
2022/03/27 13:13:05;;;;;;;13.13;8.77;;;31.30;41.40;;;;;;5087139;28;20844;-70
2022/03/27 13:15:39;;;;;;;11.57;8.23;;;30.90;42.30;;;;;;5087817;28;20485;-70
2022/03/27 13:18:12;;;;;;;12.00;9.53;;;31.10;41.80;;;;;;5088220;28;20463;-71
2022/03/27 13:20:38;;;;;;;13.77;9.67;;;31.50;41.90;;;;;;5086768;28;20549;-69
2022/03/27 13:23:06;;;;;;;11.83;8.63;;;31.50;42.20;;;;;;5086549;28;21026;-70
2022/03/27 13:25:35;;;;;;;9.13;8.10;;;31.20;41.90;;;;;;5086963;28;20503;-69
2022/03/27 13:28:03;;;;;;;10.77;9.10;;;31.20;40.50;;;;;;5085779;28;20464;-69
2022/03/27 13:30:30;;;;;;;11.33;8.63;;;30.50;41.40;;;;;;5087219;28;20508;-71
2022/03/27 13:32:58;;;;;;;9.23;7.90;;;30.40;42.30;;;;;;5086771;28;20459;-70
2022/03/27 13:35:25;;;;;;;10.63;7.30;;;30.40;41.00;;;;;;5086331;28;20471;-71
2022/03/27 13:37:53;;;;;;;8.60;7.03;;;30.30;40.10;;;;;;5086151;28;20452;-71